createdAt,value
2019-02-03T00:00:35.203Z,78.50
2019-02-03T00:01:35.104Z,79.40
2019-02-03T00:02:35.096Z,77.90
2019-02-03T00:03:35.083Z,78.40
2019-02-03T00:04:35.073Z,77.20
2019-02-03T00:05:35.062Z,81.50
2019-02-03T00:06:35.053Z,76.70
2019-02-03T00:07:35.041Z,78.10
2019-02-03T00:08:35.032Z,78.90
2019-02-03T00:09:35.019Z,77.40
2019-02-03T00:10:35.011Z,78.30
2019-02-03T00:11:35.040Z,78.00
2019-02-03T00:12:34.991Z,77.10
2019-02-03T00:13:34.978Z,78.50
2019-02-03T00:14:34.969Z,77.20
2019-02-03T00:15:34.957Z,76.30
2019-02-03T00:16:34.949Z,79.30
2019-02-03T00:17:34.936Z,78.90
2019-02-03T00:18:34.927Z,75.20
2019-02-03T00:19:34.916Z,77.00
2019-02-03T00:20:34.905Z,77.90
2019-02-03T00:21:34.897Z,77.20
2019-02-03T00:22:34.885Z,73.10
2019-02-03T00:23:35.130Z,75.50
2019-02-03T00:24:34.862Z,76.30
2019-02-03T00:25:34.880Z,78.20
2019-02-03T00:26:34.842Z,77.50
2019-02-03T00:27:34.834Z,76.30
2019-02-03T00:28:34.821Z,74.50
2019-02-03T00:29:34.816Z,75.50
2019-02-03T00:30:34.800Z,77.10
2019-02-03T00:31:34.792Z,76.10
2019-02-03T00:32:34.778Z,74.70
2019-02-03T00:33:34.770Z,75.20
2019-02-03T00:34:34.759Z,75.80
2019-02-03T00:35:34.750Z,75.10
2019-02-03T00:36:34.736Z,72.30
2019-02-03T00:37:34.778Z,73.50
2019-02-03T00:38:34.725Z,73.90
2019-02-03T00:39:34.741Z,72.80
2019-02-03T00:40:34.738Z,72.40
2019-02-03T00:41:34.741Z,70.80
2019-02-03T00:42:34.678Z,72.30
2019-02-03T00:43:34.669Z,71.90
2019-02-03T00:44:34.666Z,71.50
2019-02-03T00:45:34.645Z,71.30
2019-02-03T00:46:34.632Z,72.00
2019-02-03T00:47:34.624Z,70.50
2019-02-03T00:48:34.610Z,72.50
2019-02-03T00:49:34.602Z,72.50
2019-02-03T00:50:34.589Z,74.10
2019-02-03T00:51:34.583Z,72.10
2019-02-03T00:52:34.568Z,71.90
2019-02-03T00:53:34.560Z,73.30
2019-02-03T00:54:34.547Z,73.40
2019-02-03T00:55:34.539Z,71.50
2019-02-03T00:56:34.525Z,72.00
2019-02-03T00:57:34.517Z,72.10
2019-02-03T00:58:34.507Z,72.90
2019-02-03T00:59:34.497Z,73.90
2019-02-03T01:00:34.483Z,73.70
2019-02-03T01:01:34.475Z,72.80
2019-02-03T01:02:34.463Z,74.80
2019-02-03T01:03:34.460Z,71.80
2019-02-03T01:04:34.441Z,70.90
2019-02-03T01:05:34.434Z,72.60
2019-02-03T01:06:34.421Z,72.80
2019-02-03T01:07:34.416Z,72.20
2019-02-03T01:08:34.402Z,74.10
2019-02-03T01:09:34.407Z,71.80
2019-02-03T01:10:34.379Z,74.40
2019-02-03T01:11:34.373Z,74.20
2019-02-03T01:12:34.482Z,74.10
2019-02-03T01:13:34.349Z,74.30
2019-02-03T01:14:34.338Z,74.50
2019-02-03T01:15:34.332Z,75.40
2019-02-03T01:16:34.314Z,76.70
2019-02-03T01:17:34.306Z,75.60
2019-02-03T01:18:34.295Z,74.30
2019-02-03T01:19:34.286Z,74.20
2019-02-03T01:20:34.273Z,75.80
2019-02-03T01:21:34.264Z,76.20
2019-02-03T01:22:34.251Z,73.40
2019-02-03T01:23:34.243Z,73.30
2019-02-03T01:24:34.230Z,74.80
2019-02-03T01:25:34.222Z,73.40
2019-02-03T01:26:34.209Z,72.30
2019-02-03T01:27:34.201Z,73.80
2019-02-03T01:28:34.189Z,73.10
2019-02-03T01:29:34.179Z,74.40
2019-02-03T01:30:34.166Z,71.40
2019-02-03T01:31:34.158Z,72.00
2019-02-03T01:32:34.144Z,74.20
2019-02-03T01:33:34.139Z,71.60
2019-02-03T01:34:34.123Z,72.40
2019-02-03T01:35:34.118Z,71.70
2019-02-03T01:36:34.101Z,71.50
2019-02-03T01:37:39.270Z,73.80
2019-02-03T01:38:34.084Z,72.10
2019-02-03T01:39:34.072Z,69.60
2019-02-03T01:40:34.058Z,72.20
2019-02-03T01:41:34.055Z,70.00
2019-02-03T01:42:34.038Z,71.30
2019-02-03T01:43:34.030Z,70.70
2019-02-03T01:44:34.020Z,70.70
2019-02-03T01:45:34.104Z,71.30
2019-02-03T01:46:33.995Z,70.60
2019-02-03T01:47:33.987Z,72.40
2019-02-03T01:48:33.973Z,68.70
2019-02-03T01:49:33.965Z,70.40
2019-02-03T01:50:33.952Z,69.40
2019-02-03T01:51:33.944Z,69.60
2019-02-03T01:52:33.930Z,71.20
2019-02-03T01:53:33.922Z,68.30
2019-02-03T01:54:33.911Z,69.00
2019-02-03T01:55:33.903Z,71.40
2019-02-03T01:56:33.888Z,70.40
2019-02-03T01:57:33.879Z,69.60
2019-02-03T01:58:33.867Z,68.70
2019-02-03T01:59:33.860Z,69.90
2019-02-03T02:00:33.846Z,67.60
2019-02-03T02:01:33.839Z,68.00
2019-02-03T02:02:33.825Z,66.90
2019-02-03T02:03:33.822Z,68.10
2019-02-03T02:04:33.820Z,68.70
2019-02-03T02:05:33.807Z,67.70
2019-02-03T02:06:33.786Z,70.70
2019-02-03T02:07:33.775Z,67.30
2019-02-03T02:08:33.761Z,68.90
2019-02-03T02:09:33.763Z,67.20
2019-02-03T02:10:33.741Z,69.10
2019-02-03T02:11:33.733Z,69.00
2019-02-03T02:12:33.719Z,69.50
2019-02-03T02:13:33.710Z,70.90
2019-02-03T02:14:33.698Z,71.30
2019-02-03T02:15:33.689Z,68.80
2019-02-03T02:16:33.676Z,71.00
2019-02-03T02:17:33.671Z,69.20
2019-02-03T02:18:33.788Z,70.60
2019-02-03T02:19:33.647Z,70.20
2019-02-03T02:20:33.634Z,72.30
2019-02-03T02:21:33.625Z,72.10
2019-02-03T02:22:33.612Z,69.50
2019-02-03T02:23:33.604Z,72.70
2019-02-03T02:24:33.590Z,71.60
2019-02-03T02:25:33.581Z,69.60
2019-02-03T02:26:33.570Z,71.80
2019-02-03T02:27:33.575Z,72.60
2019-02-03T02:28:33.796Z,71.90
2019-02-03T02:29:33.539Z,72.40
2019-02-03T02:30:33.537Z,71.70
2019-02-03T02:31:33.517Z,70.30
2019-02-03T02:32:33.504Z,69.70
2019-02-03T02:33:33.495Z,70.20
2019-02-03T02:34:33.481Z,71.20
2019-02-03T02:35:33.479Z,73.10
2019-02-03T02:36:33.458Z,69.80
2019-02-03T02:37:33.504Z,70.90
2019-02-03T02:38:33.438Z,71.00
2019-02-03T02:39:35.400Z,72.00
2019-02-03T02:40:33.417Z,73.10
2019-02-03T02:41:33.407Z,72.20
2019-02-03T02:42:33.395Z,73.00
2019-02-03T02:43:33.385Z,71.00
2019-02-03T02:44:33.370Z,69.80
2019-02-03T02:45:33.362Z,70.10
2019-02-03T02:46:33.349Z,69.00
2019-02-03T02:47:33.339Z,67.40
2019-02-03T02:48:33.331Z,69.00
2019-02-03T02:49:33.316Z,73.10
2019-02-03T02:50:33.303Z,71.00
2019-02-03T02:51:33.304Z,70.30
2019-02-03T02:52:33.280Z,70.10
2019-02-03T02:53:33.272Z,68.20
2019-02-03T02:54:33.260Z,69.30
2019-02-03T02:55:33.249Z,69.90
2019-02-03T02:56:33.234Z,70.40
2019-02-03T02:57:33.226Z,71.90
2019-02-03T02:58:33.462Z,71.20
2019-02-03T02:59:33.204Z,69.60
2019-02-03T03:00:33.189Z,72.50
2019-02-03T03:01:33.179Z,70.80
2019-02-03T03:02:33.170Z,70.80
2019-02-03T03:03:33.156Z,70.60
2019-02-03T03:04:33.144Z,70.70
2019-02-03T03:05:33.132Z,69.60
2019-02-03T03:06:33.120Z,70.40
2019-02-03T03:07:33.111Z,70.50
2019-02-03T03:08:33.097Z,68.70
2019-02-03T03:09:33.087Z,67.20
2019-02-03T03:10:33.074Z,69.30
2019-02-03T03:11:33.065Z,66.60
2019-02-03T03:12:33.052Z,69.90
2019-02-03T03:13:33.041Z,69.30
2019-02-03T03:14:33.029Z,67.70
2019-02-03T03:15:33.018Z,69.00
2019-02-03T03:16:33.005Z,69.90
2019-02-03T03:17:32.995Z,69.50
2019-02-03T03:18:32.981Z,70.10
2019-02-03T03:19:32.974Z,67.70
2019-02-03T03:20:32.960Z,70.80
2019-02-03T03:21:32.949Z,66.40
2019-02-03T03:22:32.941Z,67.30
2019-02-03T03:23:32.927Z,66.70
2019-02-03T03:24:32.914Z,68.20
2019-02-03T03:25:32.948Z,68.70
2019-02-03T03:26:32.891Z,68.40
2019-02-03T03:27:32.880Z,68.20
2019-02-03T03:28:32.866Z,66.40
2019-02-03T03:29:33.992Z,65.90
2019-02-03T03:30:32.855Z,67.60
2019-02-03T03:31:32.835Z,68.60
2019-02-03T03:32:32.820Z,67.10
2019-02-03T03:33:32.822Z,67.00
2019-02-03T03:34:32.797Z,66.10
2019-02-03T03:35:34.265Z,67.80
2019-02-03T03:36:32.773Z,66.30
2019-02-03T03:37:32.763Z,65.40
2019-02-03T03:38:32.766Z,68.90
2019-02-03T03:39:32.741Z,66.10
2019-02-03T03:40:32.726Z,67.50
2019-02-03T03:41:33.017Z,69.00
2019-02-03T03:42:32.703Z,66.10
2019-02-03T03:43:32.703Z,64.60
2019-02-03T03:44:32.679Z,67.40
2019-02-03T03:45:32.673Z,67.10
2019-02-03T03:46:32.672Z,65.60
2019-02-03T03:47:32.899Z,67.90
2019-02-03T03:48:32.634Z,66.70
2019-02-03T03:49:32.625Z,67.50
2019-02-03T03:50:32.615Z,66.60
2019-02-03T03:51:32.601Z,68.70
2019-02-03T03:52:32.590Z,68.70
2019-02-03T03:53:32.579Z,72.20
2019-02-03T03:54:32.563Z,68.20
2019-02-03T03:55:32.554Z,66.70
2019-02-03T03:56:32.541Z,66.80
2019-02-03T03:57:32.529Z,69.90
2019-02-03T03:58:32.518Z,68.30
2019-02-03T03:59:32.506Z,72.40
2019-02-03T04:00:32.492Z,72.10
2019-02-03T04:01:32.484Z,67.10
2019-02-03T04:02:32.472Z,73.30
2019-02-03T04:03:32.481Z,69.70
2019-02-03T04:04:32.445Z,71.10
2019-02-03T04:05:32.436Z,67.70
2019-02-03T04:06:32.423Z,69.30
2019-02-03T04:07:32.422Z,68.70
2019-02-03T04:08:44.332Z,68.40
2019-02-03T04:09:32.391Z,67.30
2019-02-03T04:10:32.454Z,70.00
2019-02-03T04:11:32.367Z,67.80
2019-02-03T04:12:32.454Z,68.60
2019-02-03T04:13:32.343Z,67.60
2019-02-03T04:14:32.334Z,67.00
2019-02-03T04:15:32.319Z,69.60
2019-02-03T04:16:32.305Z,69.50
2019-02-03T04:17:32.297Z,66.40
2019-02-03T04:18:32.285Z,68.10
2019-02-03T04:19:32.271Z,69.30
2019-02-03T04:20:32.261Z,66.00
2019-02-03T04:21:32.261Z,66.80
2019-02-03T04:22:32.243Z,68.40
2019-02-03T04:23:32.226Z,67.30
2019-02-03T04:24:32.213Z,65.20
2019-02-03T04:25:32.202Z,63.70
2019-02-03T04:26:32.190Z,64.90
2019-02-03T04:27:32.177Z,64.70
2019-02-03T04:28:32.175Z,66.40
2019-02-03T04:29:32.157Z,64.80
2019-02-03T04:30:32.139Z,64.50
2019-02-03T04:31:32.132Z,65.40
2019-02-03T04:32:32.123Z,63.50
2019-02-03T04:33:32.105Z,62.90
2019-02-03T04:34:32.093Z,64.20
2019-02-03T04:35:32.086Z,63.90
2019-02-03T04:36:32.070Z,63.80
2019-02-03T04:37:32.056Z,63.90
2019-02-03T04:38:32.046Z,62.10
2019-02-03T04:39:32.041Z,63.20
2019-02-03T04:40:32.022Z,61.30
2019-02-03T04:41:32.011Z,63.50
2019-02-03T04:42:32.003Z,62.30
2019-02-03T04:43:31.999Z,63.20
2019-02-03T04:44:31.978Z,61.20
2019-02-03T04:45:31.961Z,62.40
2019-02-03T04:46:31.953Z,60.50
2019-02-03T04:47:31.950Z,60.50
2019-02-03T04:48:31.945Z,58.20
2019-02-03T04:49:31.914Z,58.90
2019-02-03T04:50:34.897Z,59.20
2019-02-03T04:51:31.892Z,60.70
2019-02-03T04:52:31.917Z,60.00
2019-02-03T04:53:31.872Z,59.30
2019-02-03T04:54:31.857Z,57.60
2019-02-03T04:55:31.844Z,58.20
2019-02-03T04:56:31.834Z,58.40
2019-02-03T04:57:31.820Z,58.70
2019-02-03T04:58:31.810Z,55.90
2019-02-03T04:59:31.808Z,55.10
2019-02-03T05:00:31.793Z,55.00
2019-02-03T05:01:31.773Z,55.60
2019-02-03T05:02:31.768Z,53.50
2019-02-03T05:03:31.775Z,53.70
2019-02-03T05:04:31.740Z,53.70
2019-02-03T05:05:31.726Z,52.20
2019-02-03T05:06:31.744Z,52.80
2019-02-03T05:07:31.705Z,52.80
2019-02-03T05:08:31.693Z,52.20
2019-02-03T05:09:31.829Z,53.00
2019-02-03T05:10:31.675Z,51.10
2019-02-03T05:11:31.660Z,50.90
2019-02-03T05:12:31.647Z,52.00
2019-02-03T05:13:31.643Z,49.80
2019-02-03T05:14:31.629Z,49.60
2019-02-03T05:15:31.613Z,49.80
2019-02-03T05:16:31.602Z,49.20
2019-02-03T05:17:31.587Z,47.40
2019-02-03T05:18:31.584Z,49.60
2019-02-03T05:19:31.567Z,49.90
2019-02-03T05:20:31.555Z,48.60
2019-02-03T05:21:31.548Z,48.40
2019-02-03T05:22:31.533Z,48.40
2019-02-03T05:23:31.522Z,47.70
2019-02-03T05:24:31.509Z,48.50
2019-02-03T05:25:31.500Z,48.80
2019-02-03T05:26:31.487Z,47.80
2019-02-03T05:27:31.480Z,47.70
2019-02-03T05:28:31.464Z,46.70
2019-02-03T05:29:31.469Z,49.10
2019-02-03T05:30:31.452Z,48.80
2019-02-03T05:31:31.431Z,47.40
2019-02-03T05:32:31.422Z,47.10
2019-02-03T05:33:31.407Z,49.50
2019-02-03T05:34:31.399Z,45.60
2019-02-03T05:35:31.441Z,46.60
2019-02-03T05:36:31.374Z,49.00
2019-02-03T05:37:31.361Z,45.60
2019-02-03T05:38:31.352Z,47.80
2019-02-03T05:39:31.340Z,46.20
2019-02-03T05:40:31.330Z,49.50
2019-02-03T05:41:31.317Z,46.30
2019-02-03T05:42:31.308Z,46.20
2019-02-03T05:43:31.295Z,46.00
2019-02-03T05:44:31.285Z,45.20
2019-02-03T05:45:31.272Z,44.10
2019-02-03T05:46:31.263Z,44.90
2019-02-03T05:47:31.251Z,43.50
2019-02-03T05:48:31.240Z,45.10
2019-02-03T05:49:31.230Z,43.80
2019-02-03T05:50:31.219Z,44.50
2019-02-03T05:51:31.206Z,45.20
2019-02-03T05:52:31.197Z,44.30
2019-02-03T05:53:31.283Z,43.50
2019-02-03T05:54:31.174Z,42.50
2019-02-03T05:55:31.162Z,43.10
2019-02-03T05:56:31.153Z,43.10
2019-02-03T05:57:31.139Z,43.20
2019-02-03T05:58:31.381Z,42.60
2019-02-03T05:59:31.117Z,42.60
2019-02-03T06:00:31.118Z,42.70
2019-02-03T06:01:31.238Z,43.40
2019-02-03T06:02:31.087Z,43.40
2019-02-03T06:03:31.074Z,43.10
2019-02-03T06:04:31.065Z,41.80
2019-02-03T06:05:31.053Z,43.70
2019-02-03T06:06:31.043Z,43.30
2019-02-03T06:07:31.038Z,42.30
2019-02-03T06:08:31.025Z,40.90
2019-02-03T06:09:36.828Z,42.90
2019-02-03T06:10:31.000Z,42.00
2019-02-03T06:11:30.987Z,42.20
2019-02-03T06:12:30.977Z,43.20
2019-02-03T06:13:30.964Z,41.80
2019-02-03T06:14:30.955Z,43.00
2019-02-03T06:15:31.044Z,41.80
2019-02-03T06:16:31.075Z,43.60
2019-02-03T06:17:30.941Z,42.90
2019-02-03T06:18:30.911Z,42.90
2019-02-03T06:19:30.899Z,42.50
2019-02-03T06:20:30.889Z,42.90
2019-02-03T06:21:30.877Z,42.90
2019-02-03T06:22:30.889Z,43.50
2019-02-03T06:23:30.855Z,40.90
2019-02-03T06:24:30.860Z,41.40
2019-02-03T06:25:30.833Z,41.50
2019-02-03T06:26:30.824Z,40.70
2019-02-03T06:27:30.811Z,41.10
2019-02-03T06:28:30.803Z,41.60
2019-02-03T06:29:30.789Z,40.30
2019-02-03T06:30:30.781Z,40.20
2019-02-03T06:31:30.767Z,40.70
2019-02-03T06:32:30.772Z,39.90
2019-02-03T06:33:30.746Z,40.00
2019-02-03T06:34:30.737Z,39.40
2019-02-03T06:35:30.727Z,39.20
2019-02-03T06:36:30.716Z,40.30
2019-02-03T06:37:30.704Z,38.50
2019-02-03T06:38:30.692Z,38.70
2019-02-03T06:39:30.694Z,38.10
2019-02-03T06:40:30.684Z,38.90
2019-02-03T06:41:30.657Z,37.90
2019-02-03T06:42:30.651Z,37.10
2019-02-03T06:43:30.650Z,37.70
2019-02-03T06:44:30.626Z,36.60
2019-02-03T06:45:30.613Z,37.20
2019-02-03T06:46:30.604Z,36.60
2019-02-03T06:47:30.591Z,35.80
2019-02-03T06:48:30.601Z,36.80
2019-02-03T06:49:30.569Z,35.50
2019-02-03T06:50:30.562Z,33.90
2019-02-03T06:51:30.549Z,35.20
2019-02-03T06:52:30.538Z,36.60
2019-02-03T06:53:30.525Z,35.40
2019-02-03T06:54:30.519Z,33.40
2019-02-03T06:55:30.504Z,32.60
2019-02-03T06:56:30.645Z,33.00
2019-02-03T06:57:30.481Z,32.90
2019-02-03T06:58:30.473Z,33.10
2019-02-03T06:59:30.467Z,32.00
2019-02-03T07:00:30.451Z,31.30
2019-02-03T07:01:30.437Z,29.90
2019-02-03T07:02:30.430Z,30.40
2019-02-03T07:03:30.416Z,30.20
2019-02-03T07:04:30.416Z,30.80
2019-02-03T07:05:30.393Z,31.80
2019-02-03T07:06:30.385Z,29.90
2019-02-03T07:07:30.371Z,30.30
2019-02-03T07:08:30.362Z,29.70
2019-02-03T07:09:30.349Z,29.80
2019-02-03T07:10:30.341Z,28.60
2019-02-03T07:11:30.328Z,29.70
2019-02-03T07:12:30.328Z,30.00
2019-02-03T07:13:30.305Z,27.80
2019-02-03T07:14:30.314Z,26.70
2019-02-03T07:15:30.283Z,27.80
2019-02-03T07:16:40.419Z,26.90
2019-02-03T07:17:30.261Z,26.90
2019-02-03T07:18:30.253Z,28.10
2019-02-03T07:19:30.243Z,28.20
2019-02-03T07:20:30.274Z,27.70
2019-02-03T07:21:30.217Z,25.20
2019-02-03T07:22:30.209Z,26.50
2019-02-03T07:23:30.196Z,26.60
2019-02-03T07:24:30.186Z,26.00
2019-02-03T07:25:30.183Z,25.00
2019-02-03T07:26:30.166Z,24.90
2019-02-03T07:27:30.154Z,24.20
2019-02-03T07:28:30.168Z,24.10
2019-02-03T07:29:30.280Z,23.20
2019-02-03T07:30:30.133Z,22.20
2019-02-03T07:31:30.111Z,21.80
2019-02-03T07:32:30.101Z,20.60
2019-02-03T07:33:30.087Z,20.90
2019-02-03T07:34:30.078Z,20.60
2019-02-03T07:35:30.067Z,21.10
2019-02-03T07:36:30.270Z,20.00
2019-02-03T07:37:30.044Z,20.90
2019-02-03T07:38:30.036Z,20.70
2019-02-03T07:39:30.022Z,21.10
2019-02-03T07:40:30.015Z,19.80
2019-02-03T07:41:30.000Z,19.40
2019-02-03T07:42:29.993Z,19.40
2019-02-03T07:43:29.979Z,19.70
2019-02-03T07:44:29.974Z,19.90
2019-02-03T07:45:29.961Z,19.10
2019-02-03T07:46:29.947Z,18.20
2019-02-03T07:47:29.936Z,18.40
2019-02-03T07:48:29.929Z,18.20
2019-02-03T07:49:29.912Z,18.20
2019-02-03T07:50:29.903Z,17.80
2019-02-03T07:51:29.891Z,18.00
2019-02-03T07:52:29.882Z,17.50
2019-02-03T07:53:29.868Z,17.70
2019-02-03T07:54:29.860Z,16.80
2019-02-03T07:55:29.846Z,17.30
2019-02-03T07:56:29.839Z,17.70
2019-02-03T07:57:29.826Z,16.70
2019-02-03T07:58:29.819Z,17.60
2019-02-03T07:59:29.802Z,17.30
2019-02-03T08:00:30.204Z,17.30
2019-02-03T08:01:29.779Z,16.80
2019-02-03T08:02:29.770Z,17.00
2019-02-03T08:03:29.756Z,17.20
2019-02-03T08:04:29.749Z,16.50
2019-02-03T08:05:29.734Z,16.40
2019-02-03T08:06:29.725Z,15.60
2019-02-03T08:07:29.715Z,16.70
2019-02-03T08:08:29.703Z,15.90
2019-02-03T08:09:29.689Z,16.00
2019-02-03T08:10:29.893Z,16.20
2019-02-03T08:11:29.667Z,16.40
2019-02-03T08:12:29.658Z,16.60
2019-02-03T08:13:29.648Z,16.30
2019-02-03T08:14:29.636Z,16.40
2019-02-03T08:15:29.623Z,16.50
2019-02-03T08:16:29.877Z,16.70
2019-02-03T08:17:29.600Z,17.20
2019-02-03T08:18:29.591Z,15.90
2019-02-03T08:19:29.579Z,16.20
2019-02-03T08:20:29.568Z,16.50
2019-02-03T08:21:29.556Z,17.00
2019-02-03T08:22:29.546Z,16.40
2019-02-03T08:23:29.533Z,15.80
2019-02-03T08:24:29.524Z,16.80
2019-02-03T08:25:29.510Z,15.60
2019-02-03T08:26:29.502Z,16.20
2019-02-03T08:27:29.489Z,15.40
2019-02-03T08:28:29.479Z,15.90
2019-02-03T08:29:29.466Z,15.00
2019-02-03T08:30:29.457Z,15.80
2019-02-03T08:31:29.445Z,14.90
2019-02-03T08:32:29.435Z,14.90
2019-02-03T08:33:29.421Z,15.20
2019-02-03T08:34:29.412Z,14.90
2019-02-03T08:35:29.399Z,14.30
2019-02-03T08:36:29.390Z,15.50
2019-02-03T08:37:29.377Z,14.70
2019-02-03T08:38:29.368Z,14.50
2019-02-03T08:39:29.355Z,14.50
2019-02-03T08:40:37.056Z,14.80
2019-02-03T08:41:29.332Z,13.70
2019-02-03T08:42:29.325Z,13.90
2019-02-03T08:43:29.312Z,13.80
2019-02-03T08:44:29.301Z,13.50
2019-02-03T08:45:29.290Z,13.70
2019-02-03T08:46:29.281Z,14.20
2019-02-03T08:47:29.277Z,13.60
2019-02-03T08:48:29.258Z,12.80
2019-02-03T08:49:29.246Z,13.70
2019-02-03T08:50:29.236Z,13.00
2019-02-03T08:51:32.187Z,13.20
2019-02-03T08:52:29.465Z,12.50
2019-02-03T08:53:29.206Z,13.50
2019-02-03T08:54:29.191Z,12.50
2019-02-03T08:55:29.183Z,12.50
2019-02-03T08:56:29.169Z,12.70
2019-02-03T08:57:29.161Z,12.60
2019-02-03T08:58:29.148Z,11.80
2019-02-03T08:59:29.140Z,13.00
2019-02-03T09:00:29.126Z,12.60
2019-02-03T09:01:29.118Z,12.80
2019-02-03T09:02:29.105Z,11.50
2019-02-03T09:03:29.104Z,12.30
2019-02-03T09:04:29.083Z,12.50
2019-02-03T09:05:29.075Z,11.40
2019-02-03T09:06:29.063Z,12.00
2019-02-03T09:07:29.054Z,12.10
2019-02-03T09:08:29.041Z,11.50
2019-02-03T09:09:29.034Z,11.80
2019-02-03T09:10:29.020Z,11.70
2019-02-03T09:11:29.012Z,11.80
2019-02-03T09:12:29.022Z,12.50
2019-02-03T09:13:28.991Z,11.80
2019-02-03T09:14:28.978Z,12.20
2019-02-03T09:15:28.972Z,11.20
2019-02-03T09:16:28.959Z,11.40
2019-02-03T09:17:28.949Z,11.90
2019-02-03T09:18:28.937Z,11.30
2019-02-03T09:19:28.930Z,11.40
2019-02-03T09:20:28.918Z,10.90
2019-02-03T09:21:28.907Z,10.80
2019-02-03T09:22:28.897Z,11.30
2019-02-03T09:23:28.888Z,10.80
2019-02-03T09:24:28.874Z,10.40
2019-02-03T09:25:28.868Z,11.30
2019-02-03T09:26:28.854Z,10.90
2019-02-03T09:27:28.846Z,10.80
2019-02-03T09:28:29.133Z,10.60
2019-02-03T09:29:28.825Z,11.20
2019-02-03T09:30:28.813Z,10.60
2019-02-03T09:31:28.804Z,11.30
2019-02-03T09:32:28.791Z,10.30
2019-02-03T09:33:28.784Z,10.90
2019-02-03T09:34:28.772Z,10.40
2019-02-03T09:35:28.768Z,10.60
2019-02-03T09:36:28.750Z,11.10
2019-02-03T09:37:29.713Z,10.60
2019-02-03T09:38:28.730Z,10.90
2019-02-03T09:39:28.724Z,10.00
2019-02-03T09:40:28.711Z,11.80
2019-02-03T09:41:28.707Z,10.60
2019-02-03T09:42:28.691Z,10.60
2019-02-03T09:43:28.683Z,10.20
2019-02-03T09:44:28.670Z,10.10
2019-02-03T09:45:28.663Z,10.70
2019-02-03T09:46:28.651Z,10.10
2019-02-03T09:47:28.645Z,9.70
2019-02-03T09:48:28.632Z,9.70
2019-02-03T09:49:28.625Z,10.80
2019-02-03T09:50:28.615Z,10.30
2019-02-03T09:51:28.607Z,10.20
2019-02-03T09:52:28.594Z,9.30
2019-02-03T09:53:28.587Z,9.30
2019-02-03T09:54:28.576Z,9.70
2019-02-03T09:55:28.569Z,9.60
2019-02-03T09:56:28.557Z,9.30
2019-02-03T09:57:28.550Z,9.60
2019-02-03T09:58:28.539Z,10.10
2019-02-03T09:59:28.532Z,10.00
2019-02-03T10:00:28.527Z,8.90
2019-02-03T10:01:28.513Z,9.30
2019-02-03T10:02:28.502Z,9.50
2019-02-03T10:03:28.497Z,9.80
2019-02-03T10:04:28.483Z,9.20
2019-02-03T10:05:28.477Z,9.30
2019-02-03T10:06:28.466Z,9.60
2019-02-03T10:07:28.459Z,9.60
2019-02-03T10:08:40.091Z,9.60
2019-02-03T10:09:28.442Z,8.90
2019-02-03T10:10:28.430Z,9.30
2019-02-03T10:11:28.423Z,9.60
2019-02-03T10:12:28.411Z,9.00
2019-02-03T10:13:28.404Z,8.50
2019-02-03T10:14:28.394Z,7.80
2019-02-03T10:15:28.386Z,8.10
2019-02-03T10:16:28.377Z,7.70
2019-02-03T10:17:28.382Z,7.90
2019-02-03T10:18:28.361Z,8.10
2019-02-03T10:19:28.350Z,7.60
2019-02-03T10:20:28.338Z,7.20
2019-02-03T10:21:28.329Z,7.30
2019-02-03T10:22:28.332Z,7.90
2019-02-03T10:23:28.325Z,7.40
2019-02-03T10:24:28.298Z,7.60
2019-02-03T10:25:28.297Z,7.60
2019-02-03T10:26:28.281Z,7.50
2019-02-03T10:27:28.274Z,7.10
2019-02-03T10:28:28.261Z,7.20
2019-02-03T10:29:28.254Z,7.60
2019-02-03T10:30:28.243Z,7.40
2019-02-03T10:31:28.236Z,7.50
2019-02-03T10:32:30.279Z,7.30
2019-02-03T10:33:28.218Z,7.30
2019-02-03T10:34:29.585Z,6.70
2019-02-03T10:35:28.199Z,7.20
2019-02-03T10:36:28.306Z,6.90
2019-02-03T10:37:28.183Z,7.60
2019-02-03T10:38:28.169Z,6.80
2019-02-03T10:39:28.163Z,7.30
2019-02-03T10:40:28.275Z,7.30
2019-02-03T10:41:28.143Z,7.20
2019-02-03T10:42:28.132Z,6.90
2019-02-03T10:43:28.125Z,7.30
2019-02-03T10:44:28.112Z,7.00
2019-02-03T10:45:28.106Z,7.00
2019-02-03T10:46:28.095Z,7.50
2019-02-03T10:47:28.088Z,7.10
2019-02-03T10:48:28.075Z,6.90
2019-02-03T10:49:28.069Z,7.00
2019-02-03T10:50:28.068Z,6.90
2019-02-03T10:51:28.052Z,7.30
2019-02-03T10:52:28.040Z,7.20
2019-02-03T10:53:28.032Z,7.60
2019-02-03T10:54:28.021Z,6.80
2019-02-03T10:55:28.014Z,6.50
2019-02-03T10:56:28.002Z,7.40
2019-02-03T10:57:27.996Z,6.80
2019-02-03T10:58:27.987Z,6.60
2019-02-03T10:59:27.984Z,7.00
2019-02-03T11:00:27.972Z,6.30
2019-02-03T11:01:27.962Z,7.00
2019-02-03T11:02:27.951Z,7.30
2019-02-03T11:03:27.945Z,6.00
2019-02-03T11:04:27.933Z,6.40
2019-02-03T11:05:27.927Z,7.10
2019-02-03T11:06:27.917Z,6.40
2019-02-03T11:07:27.911Z,5.90
2019-02-03T11:08:27.904Z,6.30
2019-02-03T11:09:27.896Z,6.50
2019-02-03T11:10:27.885Z,6.20
2019-02-03T11:11:36.466Z,6.80
2019-02-03T11:12:27.870Z,6.30
2019-02-03T11:13:27.862Z,7.00
2019-02-03T11:14:27.854Z,6.40
2019-02-03T11:15:27.851Z,6.60
2019-02-03T11:16:27.835Z,6.20
2019-02-03T11:17:27.830Z,5.90
2019-02-03T11:18:27.830Z,6.30
2019-02-03T11:19:27.815Z,6.30
2019-02-03T11:20:27.805Z,5.90
2019-02-03T11:21:27.799Z,5.70
2019-02-03T11:22:27.790Z,5.90
2019-02-03T11:23:27.784Z,6.20
2019-02-03T11:24:27.772Z,5.60
2019-02-03T11:25:27.784Z,5.00
2019-02-03T11:26:27.759Z,5.50
2019-02-03T11:27:27.753Z,5.10
2019-02-03T11:28:27.742Z,5.60
2019-02-03T11:29:27.739Z,4.70
2019-02-03T11:30:27.728Z,5.10
2019-02-03T11:31:27.723Z,5.00
2019-02-03T11:32:27.711Z,5.20
2019-02-03T11:33:27.706Z,5.10
2019-02-03T11:34:27.696Z,5.90
2019-02-03T11:35:27.691Z,5.40
2019-02-03T11:36:27.681Z,5.20
2019-02-03T11:37:27.676Z,5.50
2019-02-03T11:38:27.666Z,5.60
2019-02-03T11:39:27.662Z,5.60
2019-02-03T11:40:27.651Z,5.20
2019-02-03T11:41:27.646Z,5.00
2019-02-03T11:42:27.637Z,4.80
2019-02-03T11:43:27.632Z,5.30
2019-02-03T11:44:27.621Z,5.30
2019-02-03T11:45:27.617Z,4.50
2019-02-03T11:46:27.859Z,4.70
2019-02-03T11:47:27.602Z,5.40
2019-02-03T11:48:27.592Z,5.60
2019-02-03T11:49:27.587Z,4.80
2019-02-03T11:50:27.577Z,5.20
2019-02-03T11:51:27.573Z,5.10
2019-02-03T11:52:27.627Z,5.00
2019-02-03T11:53:27.563Z,5.00
2019-02-03T11:54:27.548Z,5.20
2019-02-03T11:55:27.544Z,4.90
2019-02-03T11:56:27.534Z,5.60
2019-02-03T11:57:27.527Z,4.90
2019-02-03T11:58:27.519Z,5.30
2019-02-03T11:59:27.512Z,5.20
2019-02-03T12:00:27.505Z,5.20
2019-02-03T12:01:27.499Z,5.30
2019-02-03T12:02:27.497Z,4.70
2019-02-03T12:03:27.484Z,5.00
2019-02-03T12:04:27.472Z,5.10
2019-02-03T12:05:27.467Z,4.90
2019-02-03T12:06:27.457Z,5.00
2019-02-03T12:07:27.452Z,5.30
2019-02-03T12:08:27.442Z,5.70
2019-02-03T12:09:27.539Z,5.20
2019-02-03T12:10:27.427Z,5.40
2019-02-03T12:11:27.420Z,5.40
2019-02-03T12:12:27.411Z,5.30
2019-02-03T12:13:27.404Z,5.10
2019-02-03T12:14:27.395Z,5.60
2019-02-03T12:15:27.390Z,6.40
2019-02-03T12:16:27.379Z,6.00
2019-02-03T12:17:27.374Z,6.30
2019-02-03T12:18:27.367Z,5.90
2019-02-03T12:19:27.361Z,6.00
2019-02-03T12:20:27.348Z,6.30
2019-02-03T12:21:30.108Z,5.60
2019-02-03T12:22:27.335Z,6.10
2019-02-03T12:23:27.328Z,6.20
2019-02-03T12:24:27.317Z,5.90
2019-02-03T12:25:27.312Z,6.50
2019-02-03T12:26:27.303Z,6.20
2019-02-03T12:27:27.298Z,6.00
2019-02-03T12:28:27.291Z,5.80
2019-02-03T12:29:28.759Z,5.80
2019-02-03T12:30:27.275Z,5.80
2019-02-03T12:31:27.270Z,5.70
2019-02-03T12:32:27.259Z,6.10
2019-02-03T12:33:28.590Z,6.20
2019-02-03T12:34:27.244Z,5.80
2019-02-03T12:35:27.239Z,5.90
2019-02-03T12:36:27.231Z,6.20
2019-02-03T12:37:27.224Z,5.90
2019-02-03T12:38:27.216Z,6.00
2019-02-03T12:39:27.212Z,5.80
2019-02-03T12:40:27.199Z,5.80
2019-02-03T12:41:27.208Z,6.10
2019-02-03T12:42:27.185Z,5.50
2019-02-03T12:43:27.184Z,5.80
2019-02-03T12:44:27.190Z,5.40
2019-02-03T12:45:27.168Z,5.60
2019-02-03T12:46:27.410Z,5.70
2019-02-03T12:47:27.154Z,5.90
2019-02-03T12:48:27.143Z,5.20
2019-02-03T12:49:27.140Z,5.40
2019-02-03T12:50:27.135Z,5.60
2019-02-03T12:51:27.257Z,6.00
2019-02-03T12:52:27.117Z,5.40
2019-02-03T12:53:27.113Z,5.60
2019-02-03T12:54:27.104Z,5.50
2019-02-03T12:55:27.101Z,5.60
2019-02-03T12:56:27.089Z,5.40
2019-02-03T12:57:27.085Z,5.60
2019-02-03T12:58:27.076Z,5.40